sensor_id;sensor_type;location;lat;lon;timestamp;P1;durP1;ratioP1;P2;durP2;ratioP2
9997;SDS011;5038;53.064;8.624;2023-01-24T00:01:57;30.07;;;26.80;;
9997;SDS011;5038;53.064;8.624;2023-01-24T00:04:27;29.00;;;26.10;;
9997;SDS011;5038;53.064;8.624;2023-01-24T00:06:55;30.33;;;27.03;;
9997;SDS011;5038;53.064;8.624;2023-01-24T00:09:23;28.93;;;25.60;;
9997;SDS011;5038;53.064;8.624;2023-01-24T00:11:52;29.10;;;26.07;;
9997;SDS011;5038;53.064;8.624;2023-01-24T00:14:20;27.17;;;24.20;;
9997;SDS011;5038;53.064;8.624;2023-01-24T00:16:48;29.03;;;25.93;;
9997;SDS011;5038;53.064;8.624;2023-01-24T00:19:16;28.23;;;25.30;;
9997;SDS011;5038;53.064;8.624;2023-01-24T00:21:46;29.60;;;25.73;;
9997;SDS011;5038;53.064;8.624;2023-01-24T00:24:14;30.70;;;26.80;;
9997;SDS011;5038;53.064;8.624;2023-01-24T00:26:42;29.03;;;25.97;;
9997;SDS011;5038;53.064;8.624;2023-01-24T00:29:10;28.13;;;25.23;;
9997;SDS011;5038;53.064;8.624;2023-01-24T00:31:38;29.80;;;26.67;;
9997;SDS011;5038;53.064;8.624;2023-01-24T00:34:07;31.37;;;26.80;;
9997;SDS011;5038;53.064;8.624;2023-01-24T00:36:36;30.87;;;25.63;;
9997;SDS011;5038;53.064;8.624;2023-01-24T00:39:06;27.50;;;24.73;;
9997;SDS011;5038;53.064;8.624;2023-01-24T00:41:34;28.07;;;25.03;;
9997;SDS011;5038;53.064;8.624;2023-01-24T00:44:02;27.87;;;24.90;;
9997;SDS011;5038;53.064;8.624;2023-01-24T00:46:30;27.60;;;24.70;;
9997;SDS011;5038;53.064;8.624;2023-01-24T00:48:58;25.53;;;22.93;;
9997;SDS011;5038;53.064;8.624;2023-01-24T00:51:27;26.47;;;23.67;;
9997;SDS011;5038;53.064;8.624;2023-01-24T00:53:55;29.70;;;25.50;;
9997;SDS011;5038;53.064;8.624;2023-01-24T00:56:26;28.43;;;24.23;;
9997;SDS011;5038;53.064;8.624;2023-01-24T00:58:54;24.97;;;22.50;;
9997;SDS011;5038;53.064;8.624;2023-01-24T01:01:22;25.10;;;22.60;;
9997;SDS011;5038;53.064;8.624;2023-01-24T01:03:53;24.87;;;22.37;;
9997;SDS011;5038;53.064;8.624;2023-01-24T01:06:23;19.80;;;17.80;;
9997;SDS011;5038;53.064;8.624;2023-01-24T01:08:52;20.47;;;18.43;;
9997;SDS011;5038;53.064;8.624;2023-01-24T01:11:20;22.70;;;20.40;;
9997;SDS011;5038;53.064;8.624;2023-01-24T01:13:50;24.33;;;21.83;;
9997;SDS011;5038;53.064;8.624;2023-01-24T01:16:22;22.40;;;20.30;;
9997;SDS011;5038;53.064;8.624;2023-01-24T01:18:53;21.53;;;19.33;;
9997;SDS011;5038;53.064;8.624;2023-01-24T01:21:22;19.13;;;17.20;;
9997;SDS011;5038;53.064;8.624;2023-01-24T01:23:50;20.40;;;18.37;;
9997;SDS011;5038;53.064;8.624;2023-01-24T01:26:19;22.83;;;19.13;;
9997;SDS011;5038;53.064;8.624;2023-01-24T01:28:48;21.93;;;19.63;;
9997;SDS011;5038;53.064;8.624;2023-01-24T01:31:18;20.30;;;18.30;;
9997;SDS011;5038;53.064;8.624;2023-01-24T01:33:49;21.80;;;19.60;;
9997;SDS011;5038;53.064;8.624;2023-01-24T01:36:19;21.50;;;19.43;;
9997;SDS011;5038;53.064;8.624;2023-01-24T01:38:47;19.87;;;17.97;;
9997;SDS011;5038;53.064;8.624;2023-01-24T01:41:15;20.30;;;18.20;;
9997;SDS011;5038;53.064;8.624;2023-01-24T01:43:43;15.80;;;14.30;;
9997;SDS011;5038;53.064;8.624;2023-01-24T01:46:27;16.60;;;15.00;;
9997;SDS011;5038;53.064;8.624;2023-01-24T01:48:58;17.67;;;15.97;;
9997;SDS011;5038;53.064;8.624;2023-01-24T01:51:30;17.07;;;15.00;;
9997;SDS011;5038;53.064;8.624;2023-01-24T01:54:04;16.27;;;14.77;;
9997;SDS011;5038;53.064;8.624;2023-01-24T01:56:36;18.40;;;16.60;;
9997;SDS011;5038;53.064;8.624;2023-01-24T01:59:09;17.23;;;15.53;;
9997;SDS011;5038;53.064;8.624;2023-01-24T02:01:42;17.13;;;15.50;;
9997;SDS011;5038;53.064;8.624;2023-01-24T02:04:13;21.43;;;17.47;;
9997;SDS011;5038;53.064;8.624;2023-01-24T02:06:48;17.13;;;15.43;;
9997;SDS011;5038;53.064;8.624;2023-01-24T02:09:22;18.43;;;16.63;;
9997;SDS011;5038;53.064;8.624;2023-01-24T02:11:55;16.33;;;14.60;;
9997;SDS011;5038;53.064;8.624;2023-01-24T02:14:27;17.70;;;15.77;;
9997;SDS011;5038;53.064;8.624;2023-01-24T02:17:16;15.90;;;14.30;;
9997;SDS011;5038;53.064;8.624;2023-01-24T02:19:58;15.50;;;13.90;;
9997;SDS011;5038;53.064;8.624;2023-01-24T02:22:36;14.93;;;13.43;;
9997;SDS011;5038;53.064;8.624;2023-01-24T02:25:13;15.03;;;13.53;;
9997;SDS011;5038;53.064;8.624;2023-01-24T02:27:48;14.03;;;12.67;;
9997;SDS011;5038;53.064;8.624;2023-01-24T02:30:17;15.03;;;13.53;;
9997;SDS011;5038;53.064;8.624;2023-01-24T02:32:45;14.73;;;13.23;;
9997;SDS011;5038;53.064;8.624;2023-01-24T02:35:24;14.13;;;12.80;;
9997;SDS011;5038;53.064;8.624;2023-01-24T02:37:54;12.23;;;11.03;;
9997;SDS011;5038;53.064;8.624;2023-01-24T02:40:24;12.53;;;11.23;;
9997;SDS011;5038;53.064;8.624;2023-01-24T02:42:57;14.03;;;12.63;;
9997;SDS011;5038;53.064;8.624;2023-01-24T02:45:29;13.30;;;12.00;;
9997;SDS011;5038;53.064;8.624;2023-01-24T02:48:00;12.33;;;11.10;;
9997;SDS011;5038;53.064;8.624;2023-01-24T02:50:29;14.07;;;12.70;;
9997;SDS011;5038;53.064;8.624;2023-01-24T02:53:20;12.53;;;11.23;;
9997;SDS011;5038;53.064;8.624;2023-01-24T02:55:58;13.27;;;11.87;;
9997;SDS011;5038;53.064;8.624;2023-01-24T02:58:46;13.50;;;12.10;;
9997;SDS011;5038;53.064;8.624;2023-01-24T03:01:15;13.37;;;12.03;;
9997;SDS011;5038;53.064;8.624;2023-01-24T03:03:48;12.60;;;11.00;;
9997;SDS011;5038;53.064;8.624;2023-01-24T03:06:19;9.90;;;9.00;;
9997;SDS011;5038;53.064;8.624;2023-01-24T03:08:47;10.30;;;9.23;;
9997;SDS011;5038;53.064;8.624;2023-01-24T03:11:25;9.77;;;8.77;;
9997;SDS011;5038;53.064;8.624;2023-01-24T03:13:54;10.60;;;9.60;;
9997;SDS011;5038;53.064;8.624;2023-01-24T03:16:40;9.97;;;8.97;;
9997;SDS011;5038;53.064;8.624;2023-01-24T03:19:26;11.70;;;10.50;;
9997;SDS011;5038;53.064;8.624;2023-01-24T03:22:12;12.40;;;11.20;;
9997;SDS011;5038;53.064;8.624;2023-01-24T03:24:57;11.80;;;10.60;;
9997;SDS011;5038;53.064;8.624;2023-01-24T03:27:42;11.10;;;9.77;;
9997;SDS011;5038;53.064;8.624;2023-01-24T03:30:32;11.47;;;10.27;;
9997;SDS011;5038;53.064;8.624;2023-01-24T03:33:18;12.90;;;11.53;;
9997;SDS011;5038;53.064;8.624;2023-01-24T03:36:05;11.73;;;10.53;;
9997;SDS011;5038;53.064;8.624;2023-01-24T03:38:40;12.47;;;11.20;;
9997;SDS011;5038;53.064;8.624;2023-01-24T03:41:28;13.80;;;12.40;;
9997;SDS011;5038;53.064;8.624;2023-01-24T03:43:56;14.33;;;12.93;;
9997;SDS011;5038;53.064;8.624;2023-01-24T03:46:26;12.27;;;11.17;;
9997;SDS011;5038;53.064;8.624;2023-01-24T03:48:54;12.53;;;11.23;;
9997;SDS011;5038;53.064;8.624;2023-01-24T03:51:30;13.47;;;12.10;;
9997;SDS011;5038;53.064;8.624;2023-01-24T03:54:15;14.30;;;13.00;;
9997;SDS011;5038;53.064;8.624;2023-01-24T03:56:56;14.30;;;12.80;;
9997;SDS011;5038;53.064;8.624;2023-01-24T03:59:24;13.93;;;12.60;;
9997;SDS011;5038;53.064;8.624;2023-01-24T04:01:54;14.97;;;13.43;;
9997;SDS011;5038;53.064;8.624;2023-01-24T04:04:26;14.60;;;13.30;;
9997;SDS011;5038;53.064;8.624;2023-01-24T04:07:15;15.90;;;14.20;;
9997;SDS011;5038;53.064;8.624;2023-01-24T04:09:55;16.50;;;14.90;;
9997;SDS011;5038;53.064;8.624;2023-01-24T04:12:25;14.63;;;13.13;;
9997;SDS011;5038;53.064;8.624;2023-01-24T04:14:54;13.80;;;12.50;;
9997;SDS011;5038;53.064;8.624;2023-01-24T04:17:23;14.97;;;13.53;;
9997;SDS011;5038;53.064;8.624;2023-01-24T04:19:52;14.80;;;13.40;;
9997;SDS011;5038;53.064;8.624;2023-01-24T04:22:21;15.00;;;13.40;;
9997;SDS011;5038;53.064;8.624;2023-01-24T04:24:52;15.10;;;13.70;;
9997;SDS011;5038;53.064;8.624;2023-01-24T04:27:22;14.20;;;12.80;;
9997;SDS011;5038;53.064;8.624;2023-01-24T04:29:59;17.47;;;15.73;;
9997;SDS011;5038;53.064;8.624;2023-01-24T04:32:32;15.77;;;14.37;;
9997;SDS011;5038;53.064;8.624;2023-01-24T04:35:09;14.37;;;12.97;;
9997;SDS011;5038;53.064;8.624;2023-01-24T04:37:49;14.70;;;13.20;;
9997;SDS011;5038;53.064;8.624;2023-01-24T04:40:32;14.13;;;12.70;;
9997;SDS011;5038;53.064;8.624;2023-01-24T04:43:00;13.23;;;12.00;;
9997;SDS011;5038;53.064;8.624;2023-01-24T04:45:30;15.03;;;13.43;;
9997;SDS011;5038;53.064;8.624;2023-01-24T04:48:00;14.70;;;13.27;;
9997;SDS011;5038;53.064;8.624;2023-01-24T04:50:28;15.27;;;13.87;;
9997;SDS011;5038;53.064;8.624;2023-01-24T04:52:56;15.57;;;14.10;;
9997;SDS011;5038;53.064;8.624;2023-01-24T04:55:24;16.20;;;14.60;;
9997;SDS011;5038;53.064;8.624;2023-01-24T04:57:52;15.47;;;13.87;;
9997;SDS011;5038;53.064;8.624;2023-01-24T05:00:21;16.27;;;14.63;;
9997;SDS011;5038;53.064;8.624;2023-01-24T05:02:50;16.23;;;14.63;;
9997;SDS011;5038;53.064;8.624;2023-01-24T05:05:21;16.73;;;15.13;;
9997;SDS011;5038;53.064;8.624;2023-01-24T05:07:50;15.87;;;14.37;;
9997;SDS011;5038;53.064;8.624;2023-01-24T05:10:19;16.60;;;14.93;;
9997;SDS011;5038;53.064;8.624;2023-01-24T05:12:51;15.97;;;14.47;;
9997;SDS011;5038;53.064;8.624;2023-01-24T05:15:21;16.60;;;15.10;;
9997;SDS011;5038;53.064;8.624;2023-01-24T05:17:51;17.63;;;15.93;;
9997;SDS011;5038;53.064;8.624;2023-01-24T05:20:23;18.37;;;16.57;;
9997;SDS011;5038;53.064;8.624;2023-01-24T05:22:54;19.00;;;17.00;;
9997;SDS011;5038;53.064;8.624;2023-01-24T05:25:25;18.97;;;17.10;;
9997;SDS011;5038;53.064;8.624;2023-01-24T05:27:53;17.53;;;15.83;;
9997;SDS011;5038;53.064;8.624;2023-01-24T05:30:22;18.77;;;16.87;;
9997;SDS011;5038;53.064;8.624;2023-01-24T05:32:55;17.30;;;15.57;;
9997;SDS011;5038;53.064;8.624;2023-01-24T05:35:24;17.57;;;15.83;;
9997;SDS011;5038;53.064;8.624;2023-01-24T05:37:54;16.00;;;14.50;;
9997;SDS011;5038;53.064;8.624;2023-01-24T05:40:23;17.07;;;15.27;;
9997;SDS011;5038;53.064;8.624;2023-01-24T05:42:51;18.33;;;16.53;;
9997;SDS011;5038;53.064;8.624;2023-01-24T05:45:20;19.40;;;17.50;;
9997;SDS011;5038;53.064;8.624;2023-01-24T05:47:49;18.87;;;16.97;;
9997;SDS011;5038;53.064;8.624;2023-01-24T05:50:18;18.67;;;16.73;;
9997;SDS011;5038;53.064;8.624;2023-01-24T05:53:07;16.53;;;15.00;;
9997;SDS011;5038;53.064;8.624;2023-01-24T05:55:35;15.20;;;13.73;;
9997;SDS011;5038;53.064;8.624;2023-01-24T05:58:03;17.50;;;15.77;;
9997;SDS011;5038;53.064;8.624;2023-01-24T06:00:52;17.90;;;16.23;;
9997;SDS011;5038;53.064;8.624;2023-01-24T06:03:46;19.77;;;17.77;;
9997;SDS011;5038;53.064;8.624;2023-01-24T06:06:19;17.37;;;15.67;;
9997;SDS011;5038;53.064;8.624;2023-01-24T06:08:50;19.10;;;17.30;;
9997;SDS011;5038;53.064;8.624;2023-01-24T06:11:20;17.40;;;15.70;;
9997;SDS011;5038;53.064;8.624;2023-01-24T06:13:59;17.37;;;15.67;;
9997;SDS011;5038;53.064;8.624;2023-01-24T06:16:29;19.27;;;17.47;;
9997;SDS011;5038;53.064;8.624;2023-01-24T06:18:57;19.00;;;17.03;;
9997;SDS011;5038;53.064;8.624;2023-01-24T06:21:31;17.80;;;16.07;;
9997;SDS011;5038;53.064;8.624;2023-01-24T06:24:14;18.30;;;16.57;;
9997;SDS011;5038;53.064;8.624;2023-01-24T06:26:54;18.20;;;16.40;;
9997;SDS011;5038;53.064;8.624;2023-01-24T06:29:23;21.67;;;19.10;;
9997;SDS011;5038;53.064;8.624;2023-01-24T06:31:55;19.83;;;17.83;;
9997;SDS011;5038;53.064;8.624;2023-01-24T06:34:32;18.53;;;16.63;;
9997;SDS011;5038;53.064;8.624;2023-01-24T06:37:14;20.47;;;16.53;;
9997;SDS011;5038;53.064;8.624;2023-01-24T06:39:49;20.07;;;18.07;;
9997;SDS011;5038;53.064;8.624;2023-01-24T06:42:19;19.80;;;17.80;;
9997;SDS011;5038;53.064;8.624;2023-01-24T06:44:52;19.47;;;17.40;;
9997;SDS011;5038;53.064;8.624;2023-01-24T06:47:24;19.93;;;17.80;;
9997;SDS011;5038;53.064;8.624;2023-01-24T06:49:54;18.23;;;16.53;;
9997;SDS011;5038;53.064;8.624;2023-01-24T06:52:22;18.70;;;16.90;;
9997;SDS011;5038;53.064;8.624;2023-01-24T06:54:52;18.93;;;15.70;;
9997;SDS011;5038;53.064;8.624;2023-01-24T06:57:20;18.97;;;17.07;;
9997;SDS011;5038;53.064;8.624;2023-01-24T06:59:48;19.27;;;17.40;;
9997;SDS011;5038;53.064;8.624;2023-01-24T07:02:16;18.33;;;16.53;;
9997;SDS011;5038;53.064;8.624;2023-01-24T07:04:44;19.33;;;17.43;;
9997;SDS011;5038;53.064;8.624;2023-01-24T07:07:12;20.73;;;18.83;;
9997;SDS011;5038;53.064;8.624;2023-01-24T07:09:40;23.17;;;19.23;;
9997;SDS011;5038;53.064;8.624;2023-01-24T07:12:09;21.60;;;19.60;;
9997;SDS011;5038;53.064;8.624;2023-01-24T07:14:38;21.97;;;19.73;;
9997;SDS011;5038;53.064;8.624;2023-01-24T07:17:06;23.50;;;20.90;;
9997;SDS011;5038;53.064;8.624;2023-01-24T07:19:35;20.73;;;18.73;;
9997;SDS011;5038;53.064;8.624;2023-01-24T07:22:03;19.53;;;17.63;;
9997;SDS011;5038;53.064;8.624;2023-01-24T07:24:32;20.80;;;18.60;;
9997;SDS011;5038;53.064;8.624;2023-01-24T07:27:00;19.60;;;17.60;;
9997;SDS011;5038;53.064;8.624;2023-01-24T07:29:30;21.03;;;19.03;;
9997;SDS011;5038;53.064;8.624;2023-01-24T07:31:58;19.20;;;17.20;;
9997;SDS011;5038;53.064;8.624;2023-01-24T07:34:26;19.50;;;17.60;;
9997;SDS011;5038;53.064;8.624;2023-01-24T07:36:54;20.47;;;18.47;;
9997;SDS011;5038;53.064;8.624;2023-01-24T07:39:23;18.40;;;16.60;;
9997;SDS011;5038;53.064;8.624;2023-01-24T07:41:51;20.77;;;18.77;;
9997;SDS011;5038;53.064;8.624;2023-01-24T07:44:19;21.33;;;19.33;;
9997;SDS011;5038;53.064;8.624;2023-01-24T07:46:48;21.23;;;19.23;;
9997;SDS011;5038;53.064;8.624;2023-01-24T07:49:16;20.73;;;18.53;;
9997;SDS011;5038;53.064;8.624;2023-01-24T07:51:45;22.93;;;20.50;;
9997;SDS011;5038;53.064;8.624;2023-01-24T07:54:14;22.33;;;20.13;;
9997;SDS011;5038;53.064;8.624;2023-01-24T07:56:44;22.27;;;20.10;;
9997;SDS011;5038;53.064;8.624;2023-01-24T07:59:12;22.80;;;20.40;;
9997;SDS011;5038;53.064;8.624;2023-01-24T08:01:41;21.67;;;19.67;;
9997;SDS011;5038;53.064;8.624;2023-01-24T08:04:10;20.80;;;18.80;;
9997;SDS011;5038;53.064;8.624;2023-01-24T08:06:38;21.73;;;19.53;;
9997;SDS011;5038;53.064;8.624;2023-01-24T08:09:27;21.87;;;19.67;;
9997;SDS011;5038;53.064;8.624;2023-01-24T08:11:55;22.23;;;20.03;;
9997;SDS011;5038;53.064;8.624;2023-01-24T08:14:23;21.87;;;19.57;;
9997;SDS011;5038;53.064;8.624;2023-01-24T08:16:52;22.57;;;20.37;;
9997;SDS011;5038;53.064;8.624;2023-01-24T08:19:21;22.50;;;20.10;;
9997;SDS011;5038;53.064;8.624;2023-01-24T08:22:09;22.67;;;20.27;;
9997;SDS011;5038;53.064;8.624;2023-01-24T08:24:37;20.00;;;17.90;;
9997;SDS011;5038;53.064;8.624;2023-01-24T08:27:05;21.17;;;19.07;;
9997;SDS011;5038;53.064;8.624;2023-01-24T08:29:33;21.47;;;19.50;;
9997;SDS011;5038;53.064;8.624;2023-01-24T08:32:01;21.70;;;19.60;;
9997;SDS011;5038;53.064;8.624;2023-01-24T08:34:31;20.87;;;18.87;;
9997;SDS011;5038;53.064;8.624;2023-01-24T08:36:59;20.40;;;18.50;;
9997;SDS011;5038;53.064;8.624;2023-01-24T08:39:27;21.40;;;19.30;;
9997;SDS011;5038;53.064;8.624;2023-01-24T08:41:55;19.83;;;18.00;;
9997;SDS011;5038;53.064;8.624;2023-01-24T08:44:23;20.10;;;18.20;;
9997;SDS011;5038;53.064;8.624;2023-01-24T08:46:51;21.33;;;19.23;;
9997;SDS011;5038;53.064;8.624;2023-01-24T08:49:19;20.63;;;18.67;;
9997;SDS011;5038;53.064;8.624;2023-01-24T08:51:49;20.77;;;18.70;;
9997;SDS011;5038;53.064;8.624;2023-01-24T08:54:25;21.80;;;19.70;;
9997;SDS011;5038;53.064;8.624;2023-01-24T08:56:53;21.47;;;19.33;;
9997;SDS011;5038;53.064;8.624;2023-01-24T08:59:22;22.57;;;20.47;;
9997;SDS011;5038;53.064;8.624;2023-01-24T09:01:50;21.30;;;19.30;;
9997;SDS011;5038;53.064;8.624;2023-01-24T09:04:18;24.97;;;22.47;;
9997;SDS011;5038;53.064;8.624;2023-01-24T09:06:46;20.40;;;18.40;;
9997;SDS011;5038;53.064;8.624;2023-01-24T09:09:18;22.40;;;20.30;;
9997;SDS011;5038;53.064;8.624;2023-01-24T09:11:46;22.23;;;20.23;;
9997;SDS011;5038;53.064;8.624;2023-01-24T09:14:14;21.07;;;19.07;;
9997;SDS011;5038;53.064;8.624;2023-01-24T09:16:42;21.00;;;18.90;;
9997;SDS011;5038;53.064;8.624;2023-01-24T09:19:10;20.10;;;18.20;;
9997;SDS011;5038;53.064;8.624;2023-01-24T09:21:39;21.17;;;19.07;;
9997;SDS011;5038;53.064;8.624;2023-01-24T09:24:08;21.07;;;19.17;;
9997;SDS011;5038;53.064;8.624;2023-01-24T09:26:36;20.77;;;18.77;;
9997;SDS011;5038;53.064;8.624;2023-01-24T09:29:05;20.53;;;18.60;;
9997;SDS011;5038;53.064;8.624;2023-01-24T09:31:35;19.70;;;17.90;;
9997;SDS011;5038;53.064;8.624;2023-01-24T09:34:03;20.90;;;18.90;;
9997;SDS011;5038;53.064;8.624;2023-01-24T09:36:31;23.43;;;21.07;;
9997;SDS011;5038;53.064;8.624;2023-01-24T09:39:00;21.27;;;19.07;;
9997;SDS011;5038;53.064;8.624;2023-01-24T09:41:37;19.77;;;17.90;;
9997;SDS011;5038;53.064;8.624;2023-01-24T09:44:36;20.20;;;18.20;;
9997;SDS011;5038;53.064;8.624;2023-01-24T09:47:14;20.40;;;18.50;;
9997;SDS011;5038;53.064;8.624;2023-01-24T09:49:47;20.43;;;18.50;;
9997;SDS011;5038;53.064;8.624;2023-01-24T09:52:22;19.13;;;17.23;;
9997;SDS011;5038;53.064;8.624;2023-01-24T09:54:56;19.33;;;17.27;;
9997;SDS011;5038;53.064;8.624;2023-01-24T09:57:32;21.53;;;19.53;;
9997;SDS011;5038;53.064;8.624;2023-01-24T10:00:10;20.90;;;18.83;;
9997;SDS011;5038;53.064;8.624;2023-01-24T10:02:44;19.87;;;18.07;;
9997;SDS011;5038;53.064;8.624;2023-01-24T10:05:13;20.03;;;18.03;;
9997;SDS011;5038;53.064;8.624;2023-01-24T10:07:55;18.57;;;16.77;;
9997;SDS011;5038;53.064;8.624;2023-01-24T10:10:37;19.70;;;17.80;;
9997;SDS011;5038;53.064;8.624;2023-01-24T10:16:24;19.30;;;17.50;;
9997;SDS011;5038;53.064;8.624;2023-01-24T10:19:14;19.97;;;18.00;;
9997;SDS011;5038;53.064;8.624;2023-01-24T10:21:55;20.80;;;18.90;;
9997;SDS011;5038;53.064;8.624;2023-01-24T10:24:37;19.50;;;17.50;;
9997;SDS011;5038;53.064;8.624;2023-01-24T10:27:12;19.93;;;17.83;;
9997;SDS011;5038;53.064;8.624;2023-01-24T10:29:45;19.57;;;17.70;;
9997;SDS011;5038;53.064;8.624;2023-01-24T10:32:25;18.97;;;17.07;;
9997;SDS011;5038;53.064;8.624;2023-01-24T10:34:59;17.77;;;16.03;;
9997;SDS011;5038;53.064;8.624;2023-01-24T10:37:40;19.03;;;17.00;;
9997;SDS011;5038;53.064;8.624;2023-01-24T10:40:11;18.60;;;16.70;;
9997;SDS011;5038;53.064;8.624;2023-01-24T10:42:40;18.43;;;16.70;;
9997;SDS011;5038;53.064;8.624;2023-01-24T10:45:16;18.67;;;16.80;;
9997;SDS011;5038;53.064;8.624;2023-01-24T10:47:57;19.10;;;17.10;;
9997;SDS011;5038;53.064;8.624;2023-01-24T10:50:32;18.03;;;16.23;;
9997;SDS011;5038;53.064;8.624;2023-01-24T10:53:11;18.07;;;16.37;;
9997;SDS011;5038;53.064;8.624;2023-01-24T10:55:57;18.70;;;16.90;;
9997;SDS011;5038;53.064;8.624;2023-01-24T10:58:34;18.93;;;17.13;;
9997;SDS011;5038;53.064;8.624;2023-01-24T11:01:07;18.17;;;16.40;;
9997;SDS011;5038;53.064;8.624;2023-01-24T11:03:44;19.43;;;17.53;;
9997;SDS011;5038;53.064;8.624;2023-01-24T11:06:22;18.10;;;16.30;;
9997;SDS011;5038;53.064;8.624;2023-01-24T11:08:54;18.00;;;16.20;;
9997;SDS011;5038;53.064;8.624;2023-01-24T11:11:29;16.63;;;15.13;;
9997;SDS011;5038;53.064;8.624;2023-01-24T11:13:59;17.37;;;15.67;;
9997;SDS011;5038;53.064;8.624;2023-01-24T11:16:32;17.73;;;15.90;;
9997;SDS011;5038;53.064;8.624;2023-01-24T11:19:09;18.67;;;16.87;;
9997;SDS011;5038;53.064;8.624;2023-01-24T11:21:50;18.00;;;16.20;;
9997;SDS011;5038;53.064;8.624;2023-01-24T11:24:20;18.03;;;16.23;;
9997;SDS011;5038;53.064;8.624;2023-01-24T11:27:01;18.17;;;16.27;;
9997;SDS011;5038;53.064;8.624;2023-01-24T11:29:30;17.23;;;15.53;;
9997;SDS011;5038;53.064;8.624;2023-01-24T11:32:04;17.50;;;15.80;;
9997;SDS011;5038;53.064;8.624;2023-01-24T11:34:49;17.00;;;15.30;;
9997;SDS011;5038;53.064;8.624;2023-01-24T11:37:34;18.00;;;16.10;;
9997;SDS011;5038;53.064;8.624;2023-01-24T11:40:25;15.83;;;14.23;;
9997;SDS011;5038;53.064;8.624;2023-01-24T11:43:11;16.97;;;14.93;;
9997;SDS011;5038;53.064;8.624;2023-01-24T11:48:59;17.23;;;15.60;;
9997;SDS011;5038;53.064;8.624;2023-01-24T11:51:46;18.03;;;16.23;;
9997;SDS011;5038;53.064;8.624;2023-01-24T11:54:29;17.37;;;15.63;;
9997;SDS011;5038;53.064;8.624;2023-01-24T11:57:08;17.63;;;15.90;;
9997;SDS011;5038;53.064;8.624;2023-01-24T11:59:50;18.90;;;17.00;;
9997;SDS011;5038;53.064;8.624;2023-01-24T12:02:43;18.77;;;16.93;;
9997;SDS011;5038;53.064;8.624;2023-01-24T12:08:20;16.93;;;15.20;;
9997;SDS011;5038;53.064;8.624;2023-01-24T12:11:02;18.20;;;16.40;;
9997;SDS011;5038;53.064;8.624;2023-01-24T12:14:01;18.47;;;16.77;;
9997;SDS011;5038;53.064;8.624;2023-01-24T12:16:50;18.23;;;16.33;;
9997;SDS011;5038;53.064;8.624;2023-01-24T12:19:47;18.10;;;16.30;;
9997;SDS011;5038;53.064;8.624;2023-01-24T12:22:22;17.43;;;15.80;;
9997;SDS011;5038;53.064;8.624;2023-01-24T12:24:54;16.77;;;15.17;;
9997;SDS011;5038;53.064;8.624;2023-01-24T12:27:28;16.87;;;15.17;;
9997;SDS011;5038;53.064;8.624;2023-01-24T12:30:01;17.97;;;16.17;;
9997;SDS011;5038;53.064;8.624;2023-01-24T12:32:35;15.07;;;13.60;;
9997;SDS011;5038;53.064;8.624;2023-01-24T12:35:11;16.77;;;15.07;;
9997;SDS011;5038;53.064;8.624;2023-01-24T12:37:49;16.43;;;14.90;;
9997;SDS011;5038;53.064;8.624;2023-01-24T12:40:36;17.43;;;15.73;;
9997;SDS011;5038;53.064;8.624;2023-01-24T12:43:13;15.97;;;14.43;;
9997;SDS011;5038;53.064;8.624;2023-01-24T12:45:47;18.17;;;16.27;;
9997;SDS011;5038;53.064;8.624;2023-01-24T12:48:26;17.27;;;15.30;;
9997;SDS011;5038;53.064;8.624;2023-01-24T12:51:07;15.43;;;13.93;;
9997;SDS011;5038;53.064;8.624;2023-01-24T12:53:47;16.17;;;14.57;;
9997;SDS011;5038;53.064;8.624;2023-01-24T12:56:31;17.03;;;15.30;;
9997;SDS011;5038;53.064;8.624;2023-01-24T12:59:08;16.70;;;14.93;;
9997;SDS011;5038;53.064;8.624;2023-01-24T13:01:43;15.97;;;14.37;;
9997;SDS011;5038;53.064;8.624;2023-01-24T13:04:37;17.07;;;15.07;;
9997;SDS011;5038;53.064;8.624;2023-01-24T13:07:17;16.57;;;14.93;;
9997;SDS011;5038;53.064;8.624;2023-01-24T13:10:02;18.27;;;16.47;;
9997;SDS011;5038;53.064;8.624;2023-01-24T13:12:38;17.17;;;15.47;;
9997;SDS011;5038;53.064;8.624;2023-01-24T13:15:13;15.13;;;13.63;;
9997;SDS011;5038;53.064;8.624;2023-01-24T13:17:53;19.50;;;17.43;;
9997;SDS011;5038;53.064;8.624;2023-01-24T13:20:36;16.77;;;15.07;;
9997;SDS011;5038;53.064;8.624;2023-01-24T13:23:19;16.13;;;14.53;;
9997;SDS011;5038;53.064;8.624;2023-01-24T13:28:56;15.63;;;14.13;;
9997;SDS011;5038;53.064;8.624;2023-01-24T13:31:46;16.03;;;14.40;;
9997;SDS011;5038;53.064;8.624;2023-01-24T13:34:25;16.03;;;14.53;;
9997;SDS011;5038;53.064;8.624;2023-01-24T13:36:58;15.50;;;13.90;;
9997;SDS011;5038;53.064;8.624;2023-01-24T13:39:30;16.63;;;14.93;;
9997;SDS011;5038;53.064;8.624;2023-01-24T13:42:04;16.53;;;14.83;;
9997;SDS011;5038;53.064;8.624;2023-01-24T13:44:44;33.17;;;29.73;;
9997;SDS011;5038;53.064;8.624;2023-01-24T13:47:24;16.53;;;14.93;;
9997;SDS011;5038;53.064;8.624;2023-01-24T13:50:13;15.50;;;13.93;;
9997;SDS011;5038;53.064;8.624;2023-01-24T13:52:46;17.90;;;15.53;;
9997;SDS011;5038;53.064;8.624;2023-01-24T13:58:30;16.10;;;14.07;;
9997;SDS011;5038;53.064;8.624;2023-01-24T14:01:01;16.30;;;14.70;;
9997;SDS011;5038;53.064;8.624;2023-01-24T14:03:32;17.23;;;15.60;;
9997;SDS011;5038;53.064;8.624;2023-01-24T14:06:06;15.73;;;14.13;;
9997;SDS011;5038;53.064;8.624;2023-01-24T14:08:39;16.50;;;14.93;;
9997;SDS011;5038;53.064;8.624;2023-01-24T14:19:56;17.53;;;15.67;;
9997;SDS011;5038;53.064;8.624;2023-01-24T14:22:31;15.67;;;14.07;;
9997;SDS011;5038;53.064;8.624;2023-01-24T14:25:17;16.83;;;15.07;;
9997;SDS011;5038;53.064;8.624;2023-01-24T14:28:02;16.23;;;14.57;;
9997;SDS011;5038;53.064;8.624;2023-01-24T14:30:42;19.17;;;17.07;;
9997;SDS011;5038;53.064;8.624;2023-01-24T14:33:18;16.37;;;14.63;;
9997;SDS011;5038;53.064;8.624;2023-01-24T14:36:01;17.67;;;15.90;;
9997;SDS011;5038;53.064;8.624;2023-01-24T14:38:39;18.10;;;16.30;;
9997;SDS011;5038;53.064;8.624;2023-01-24T14:41:10;17.73;;;15.83;;
9997;SDS011;5038;53.064;8.624;2023-01-24T14:43:47;17.03;;;15.23;;
9997;SDS011;5038;53.064;8.624;2023-01-24T14:46:19;15.20;;;13.70;;
9997;SDS011;5038;53.064;8.624;2023-01-24T14:48:49;16.57;;;14.67;;
9997;SDS011;5038;53.064;8.624;2023-01-24T14:51:18;17.07;;;15.30;;
9997;SDS011;5038;53.064;8.624;2023-01-24T14:53:50;17.33;;;15.07;;
9997;SDS011;5038;53.064;8.624;2023-01-24T14:56:20;16.90;;;15.20;;
9997;SDS011;5038;53.064;8.624;2023-01-24T14:58:48;17.40;;;15.60;;
9997;SDS011;5038;53.064;8.624;2023-01-24T15:01:26;22.67;;;20.27;;
9997;SDS011;5038;53.064;8.624;2023-01-24T15:03:57;16.80;;;15.10;;
9997;SDS011;5038;53.064;8.624;2023-01-24T15:06:26;16.27;;;14.60;;
9997;SDS011;5038;53.064;8.624;2023-01-24T15:08:55;17.13;;;15.50;;
9997;SDS011;5038;53.064;8.624;2023-01-24T15:11:27;16.90;;;15.20;;
9997;SDS011;5038;53.064;8.624;2023-01-24T15:13:58;17.03;;;15.23;;
9997;SDS011;5038;53.064;8.624;2023-01-24T15:16:32;16.60;;;14.90;;
9997;SDS011;5038;53.064;8.624;2023-01-24T15:19:04;15.90;;;14.23;;
9997;SDS011;5038;53.064;8.624;2023-01-24T15:21:36;16.83;;;15.10;;
9997;SDS011;5038;53.064;8.624;2023-01-24T15:24:12;17.27;;;15.57;;
9997;SDS011;5038;53.064;8.624;2023-01-24T15:26:46;16.70;;;15.00;;
9997;SDS011;5038;53.064;8.624;2023-01-24T15:32:26;16.37;;;14.70;;
9997;SDS011;5038;53.064;8.624;2023-01-24T15:37:58;16.33;;;14.67;;
9997;SDS011;5038;53.064;8.624;2023-01-24T15:40:50;16.43;;;14.80;;
9997;SDS011;5038;53.064;8.624;2023-01-24T15:43:21;16.70;;;15.00;;
9997;SDS011;5038;53.064;8.624;2023-01-24T15:46:14;16.93;;;15.20;;
9997;SDS011;5038;53.064;8.624;2023-01-24T15:49:20;16.93;;;15.13;;
9997;SDS011;5038;53.064;8.624;2023-01-24T15:52:04;17.70;;;15.93;;
9997;SDS011;5038;53.064;8.624;2023-01-24T15:54:48;17.90;;;16.00;;
9997;SDS011;5038;53.064;8.624;2023-01-24T15:57:20;15.90;;;14.27;;
9997;SDS011;5038;53.064;8.624;2023-01-24T15:59:51;19.43;;;17.37;;